createdAt,value
2018-12-25T00:01:44.907Z,10.27
2018-12-25T00:04:33.739Z,9.90
2018-12-25T00:07:15.162Z,9.53
2018-12-25T00:09:56.220Z,9.63
2018-12-25T00:12:37.595Z,9.37
2018-12-25T00:18:17.566Z,9.33
2018-12-25T00:20:59.192Z,9.53
2018-12-25T00:23:40.806Z,9.77
2018-12-25T00:26:22.212Z,9.97
2018-12-25T00:28:52.077Z,11.23
2018-12-25T00:31:40.854Z,10.30
2018-12-25T00:34:29.782Z,9.83
2018-12-25T00:37:18.772Z,9.90
2018-12-25T00:40:07.630Z,9.70
2018-12-25T00:42:56.679Z,9.73
2018-12-25T00:45:26.609Z,10.37
2018-12-25T00:48:15.406Z,9.77
2018-12-25T00:51:04.194Z,12.10
2018-12-25T00:53:53.058Z,10.07
2018-12-25T00:56:41.862Z,11.10
2018-12-25T00:59:30.614Z,10.80
2018-12-25T01:02:19.497Z,9.93
2018-12-25T01:05:08.298Z,11.20
2018-12-25T01:07:49.690Z,11.03
2018-12-25T01:10:31.398Z,9.63
2018-12-25T01:13:12.409Z,11.13
2018-12-25T01:15:53.939Z,10.30
2018-12-25T01:18:35.215Z,10.17
2018-12-25T01:21:16.186Z,10.53
2018-12-25T01:23:57.666Z,9.97
2018-12-25T01:26:39.447Z,10.33
2018-12-25T01:29:21.168Z,10.40
2018-12-25T01:32:02.859Z,11.13
2018-12-25T01:34:44.322Z,10.33
2018-12-25T01:37:26.307Z,11.23
2018-12-25T01:40:07.665Z,12.03
2018-12-25T01:42:49.026Z,11.17
2018-12-25T01:45:30.535Z,10.97
2018-12-25T01:48:12.107Z,11.07
2018-12-25T01:50:52.049Z,11.90
2018-12-25T01:53:40.848Z,10.27
2018-12-25T01:56:29.585Z,12.30
2018-12-25T01:59:18.363Z,11.07
2018-12-25T02:02:07.281Z,12.17
2018-12-25T02:04:56.076Z,10.70
2018-12-25T02:07:37.818Z,11.67
2018-12-25T02:10:19.425Z,12.37
2018-12-25T02:13:01.087Z,11.77
2018-12-25T02:15:42.493Z,11.27
2018-12-25T02:18:26.029Z,11.90
2018-12-25T02:21:07.253Z,12.17
2018-12-25T02:23:48.694Z,12.07
2018-12-25T02:26:30.158Z,12.37
2018-12-25T02:29:11.389Z,12.00
2018-12-25T02:31:52.927Z,11.73
2018-12-25T02:34:34.640Z,12.60
2018-12-25T02:37:16.554Z,12.77
2018-12-25T02:39:57.722Z,12.77
2018-12-25T02:42:39.334Z,13.10
2018-12-25T02:45:20.999Z,12.47
2018-12-25T02:48:03.831Z,12.70
2018-12-25T02:50:44.983Z,12.87
2018-12-25T02:53:26.402Z,12.93
2018-12-25T02:56:08.248Z,12.43
2018-12-25T02:58:49.854Z,12.73
2018-12-25T03:01:31.151Z,12.23
2018-12-25T03:04:12.727Z,13.67
2018-12-25T03:06:53.926Z,13.03
2018-12-25T03:09:35.541Z,13.50
2018-12-25T03:12:16.782Z,12.90
2018-12-25T03:14:58.223Z,11.83
2018-12-25T03:17:39.996Z,13.70
2018-12-25T03:20:19.834Z,14.10
2018-12-25T03:23:08.626Z,13.10
2018-12-25T03:25:57.431Z,14.37
2018-12-25T03:28:46.308Z,14.20
2018-12-25T03:31:35.146Z,14.47
2018-12-25T03:34:23.991Z,14.10
2018-12-25T03:37:12.850Z,13.50
2018-12-25T03:40:01.807Z,14.63
2018-12-25T03:42:50.647Z,14.40
2018-12-25T03:45:39.436Z,14.30
2018-12-25T03:48:28.235Z,13.30
2018-12-25T03:51:17.159Z,13.73
2018-12-25T03:54:08.900Z,12.90
2018-12-25T03:56:57.785Z,13.37
2018-12-25T03:59:46.599Z,13.83
2018-12-25T04:02:35.399Z,14.00
2018-12-25T04:05:24.213Z,13.33
2018-12-25T04:08:12.996Z,13.83
2018-12-25T04:11:01.846Z,13.80
2018-12-25T04:13:50.628Z,13.87
2018-12-25T04:16:39.406Z,13.87
2018-12-25T04:19:28.326Z,13.63
2018-12-25T04:22:17.075Z,14.10
2018-12-25T04:25:05.961Z,13.60
2018-12-25T04:27:54.754Z,13.67
2018-12-25T04:30:43.644Z,11.67
2018-12-25T04:33:32.431Z,12.97
2018-12-25T04:36:21.300Z,14.40
2018-12-25T04:39:10.122Z,12.57
2018-12-25T04:41:58.927Z,11.70
2018-12-25T04:44:47.694Z,12.80
2018-12-25T04:47:36.618Z,12.90
2018-12-25T04:50:29.407Z,13.40
2018-12-25T04:53:15.876Z,13.17
2018-12-25T04:56:04.022Z,13.20
2018-12-25T04:58:52.854Z,12.83
2018-12-25T05:01:41.630Z,11.57
2018-12-25T05:04:30.415Z,11.43
2018-12-25T05:07:19.253Z,12.87
2018-12-25T05:10:00.990Z,13.47
2018-12-25T05:12:42.491Z,11.30
2018-12-25T05:15:23.938Z,12.03
2018-12-25T05:18:05.689Z,10.77
2018-12-25T05:20:47.372Z,12.10
2018-12-25T05:23:28.594Z,11.57
2018-12-25T05:26:09.762Z,11.97
2018-12-25T05:28:39.653Z,11.87
2018-12-25T05:31:28.487Z,11.43
2018-12-25T05:34:17.273Z,11.37
2018-12-25T05:37:06.059Z,11.07
2018-12-25T05:39:54.878Z,12.43
2018-12-25T05:42:43.664Z,11.47
2018-12-25T05:45:32.480Z,11.40
2018-12-25T05:48:21.368Z,12.23
2018-12-25T05:51:10.186Z,11.70
2018-12-25T05:53:58.978Z,12.27
2018-12-25T05:56:47.858Z,11.93
2018-12-25T05:59:36.642Z,11.60
2018-12-25T06:02:25.476Z,11.30
2018-12-25T06:05:14.307Z,13.90
2018-12-25T06:08:03.327Z,12.73
2018-12-25T06:10:52.122Z,12.20
2018-12-25T06:13:40.982Z,11.63
2018-12-25T06:16:29.711Z,12.33
2018-12-25T06:19:18.576Z,12.03
2018-12-25T06:22:07.374Z,13.47
2018-12-25T06:24:56.235Z,14.00
2018-12-25T06:27:45.037Z,12.50
2018-12-25T06:30:33.890Z,12.50
2018-12-25T06:33:24.620Z,12.07
2018-12-25T06:36:13.379Z,11.70
2018-12-25T06:39:02.191Z,12.30
2018-12-25T06:41:51.013Z,11.87
2018-12-25T06:44:39.819Z,13.07
2018-12-25T06:47:28.575Z,11.37
2018-12-25T06:50:17.394Z,10.73
2018-12-25T06:53:26.438Z,11.63
2018-12-25T06:56:35.523Z,10.70
2018-12-25T06:59:24.339Z,10.73
2018-12-25T07:01:54.190Z,10.80
2018-12-25T07:04:34.191Z,10.50
2018-12-25T07:07:23.019Z,11.03
2018-12-25T07:10:11.948Z,11.83
2018-12-25T07:13:00.667Z,11.73
2018-12-25T07:15:49.489Z,11.20
2018-12-25T07:18:38.366Z,11.73
2018-12-25T07:21:27.171Z,10.40
2018-12-25T07:24:16.027Z,10.73
2018-12-25T07:27:04.802Z,9.47
2018-12-25T07:29:53.865Z,10.83
2018-12-25T07:32:42.662Z,11.30
2018-12-25T07:35:31.479Z,10.70
2018-12-25T07:38:20.339Z,10.60
2018-12-25T07:41:09.068Z,10.50
2018-12-25T07:43:39.016Z,11.20
2018-12-25T07:46:27.845Z,10.90
2018-12-25T07:49:16.744Z,11.60
2018-12-25T07:52:05.558Z,10.97
2018-12-25T07:54:54.443Z,10.83
2018-12-25T07:57:43.259Z,12.07
2018-12-25T08:00:24.436Z,10.67
2018-12-25T08:03:05.795Z,12.00
2018-12-25T08:05:47.143Z,11.63
2018-12-25T08:08:28.712Z,11.83
2018-12-25T08:11:10.165Z,12.70
2018-12-25T08:13:51.786Z,13.20
2018-12-25T08:16:33.419Z,11.53
2018-12-25T08:19:03.310Z,13.77
2018-12-25T08:21:52.057Z,11.90
2018-12-25T08:25:01.103Z,11.83
2018-12-25T08:27:49.891Z,12.20
2018-12-25T08:30:38.662Z,12.60
2018-12-25T08:33:27.456Z,11.70
2018-12-25T08:36:16.347Z,12.77
2018-12-25T08:39:06.634Z,12.00
2018-12-25T08:41:55.478Z,10.97
2018-12-25T08:44:44.449Z,10.87
2018-12-25T08:47:33.203Z,10.93
2018-12-25T08:50:22.022Z,12.40
2018-12-25T08:53:11.328Z,13.10
2018-12-25T08:56:12.387Z,11.23
2018-12-25T08:58:43.595Z,12.40
2018-12-25T09:01:25.663Z,12.80
2018-12-25T09:09:39.306Z,12.30
2018-12-25T09:09:42.341Z,12.20
2018-12-25T09:12:28.091Z,11.80
2018-12-25T09:15:15.576Z,12.47
2018-12-25T09:17:56.905Z,12.00
2018-12-25T09:20:38.291Z,11.23
2018-12-25T09:23:19.806Z,11.20
2018-12-25T09:26:01.422Z,11.87
2018-12-25T09:28:43.217Z,11.20
2018-12-25T09:31:24.806Z,12.00
2018-12-25T09:34:06.058Z,12.03
2018-12-25T09:36:46.026Z,11.20
2018-12-25T09:39:34.826Z,11.53
2018-12-25T09:42:23.687Z,11.63
2018-12-25T09:45:12.482Z,14.03
2018-12-25T09:48:01.286Z,11.63
2018-12-25T09:50:50.090Z,13.00
2018-12-25T09:53:38.948Z,12.83
2018-12-25T09:56:27.673Z,12.80
2018-12-25T09:59:08.938Z,12.07
2018-12-25T10:01:50.636Z,12.97
2018-12-25T10:04:20.542Z,13.73
2018-12-25T10:07:09.354Z,12.23
2018-12-25T10:09:58.262Z,13.70
2018-12-25T10:12:47.295Z,14.57
2018-12-25T10:15:36.082Z,14.17
2018-12-25T10:18:45.176Z,14.20
2018-12-25T10:21:33.941Z,12.23
2018-12-25T10:24:23.006Z,12.93
2018-12-25T10:27:11.726Z,11.73
2018-12-25T10:30:00.563Z,12.10
2018-12-25T10:32:49.520Z,12.07
2018-12-25T10:35:38.356Z,12.13
2018-12-25T10:38:27.138Z,11.47
2018-12-25T10:41:15.935Z,11.80
2018-12-25T10:44:04.752Z,11.70
2018-12-25T10:46:53.541Z,11.67
2018-12-25T10:49:42.426Z,11.50
2018-12-25T10:52:23.662Z,10.80
2018-12-25T10:55:04.966Z,11.23
2018-12-25T10:57:46.739Z,11.93
2018-12-25T11:00:27.964Z,12.50
2018-12-25T11:03:09.491Z,12.50
2018-12-25T11:05:51.035Z,11.83
2018-12-25T11:08:32.414Z,10.70
2018-12-25T11:11:14.094Z,13.23
2018-12-25T11:13:55.446Z,13.50
2018-12-25T11:16:25.328Z,12.57
2018-12-25T11:19:14.095Z,12.80
2018-12-25T11:22:02.860Z,13.47
2018-12-25T11:24:53.547Z,13.03
2018-12-25T11:27:42.440Z,13.97
2018-12-25T11:30:31.298Z,12.63
2018-12-25T11:33:20.115Z,11.27
2018-12-25T11:36:08.919Z,10.40
2018-12-25T11:38:57.705Z,12.73
2018-12-25T11:41:46.547Z,13.10
2018-12-25T11:44:35.372Z,12.20
2018-12-25T11:47:24.253Z,13.40
2018-12-25T11:49:54.044Z,12.20
2018-12-25T11:52:28.399Z,12.63
2018-12-25T11:55:14.510Z,10.10
2018-12-25T11:58:03.473Z,10.97
2018-12-25T12:00:52.249Z,11.20
2018-12-25T12:03:41.039Z,11.10
2018-12-25T12:06:30.024Z,10.50
2018-12-25T12:09:18.795Z,10.97
2018-12-25T12:12:07.601Z,10.27
2018-12-25T12:14:58.478Z,10.20
2018-12-25T12:17:47.195Z,10.43
2018-12-25T12:20:36.056Z,11.10
2018-12-25T12:23:24.903Z,10.57
2018-12-25T12:26:13.785Z,11.23
2018-12-25T12:29:02.715Z,11.40
2018-12-25T12:31:51.547Z,10.97
2018-12-25T12:34:40.357Z,11.67
2018-12-25T12:37:10.214Z,10.70
2018-12-25T12:39:59.102Z,10.43
2018-12-25T12:42:47.957Z,10.73
2018-12-25T12:45:36.909Z,9.43
2018-12-25T12:48:25.775Z,10.23
2018-12-25T12:51:14.601Z,10.27
2018-12-25T12:54:03.407Z,9.37
2018-12-25T12:56:52.236Z,9.30
2018-12-25T12:59:41.021Z,10.80
2018-12-25T13:02:29.793Z,10.93
2018-12-25T13:05:18.916Z,10.90
2018-12-25T13:08:07.706Z,10.77
2018-12-25T13:10:56.547Z,10.27
2018-12-25T13:13:45.518Z,11.67
2018-12-25T13:16:34.305Z,12.50
2018-12-25T13:19:23.139Z,9.70
2018-12-25T13:22:12.043Z,9.70
2018-12-25T13:24:41.946Z,10.50
2018-12-25T13:27:30.717Z,10.83
2018-12-25T13:30:19.591Z,10.57
2018-12-25T13:33:08.466Z,10.97
2018-12-25T13:35:57.529Z,10.37
2018-12-25T13:38:47.149Z,10.20
2018-12-25T13:41:28.204Z,10.43
2018-12-25T13:44:09.677Z,10.70
2018-12-25T13:46:52.026Z,9.80
2018-12-25T13:49:33.685Z,10.37
2018-12-25T13:52:14.819Z,9.47
2018-12-25T13:54:56.498Z,10.07
2018-12-25T13:57:37.923Z,8.50
2018-12-25T14:00:19.146Z,10.77
2018-12-25T14:03:00.769Z,11.80
2018-12-25T14:05:42.463Z,10.53
2018-12-25T14:08:23.484Z,11.60
2018-12-25T14:11:04.889Z,9.53
2018-12-25T14:13:46.276Z,11.03
2018-12-25T14:16:27.775Z,10.50
2018-12-25T14:19:09.532Z,10.17
2018-12-25T14:21:51.152Z,10.20
2018-12-25T14:24:32.909Z,9.50
2018-12-25T14:27:14.399Z,9.53
2018-12-25T14:29:55.891Z,10.07
2018-12-25T14:32:37.367Z,9.80
2018-12-25T14:35:19.134Z,9.57
2018-12-25T14:38:00.699Z,10.20
2018-12-25T14:40:42.456Z,10.03
2018-12-25T14:43:23.983Z,10.27
2018-12-25T14:46:05.708Z,9.67
2018-12-25T14:48:47.338Z,9.33
2018-12-25T14:51:28.878Z,9.90
2018-12-25T14:54:10.693Z,8.87
2018-12-25T14:56:52.140Z,8.30
2018-12-25T14:59:33.553Z,8.93
2018-12-25T15:02:15.051Z,13.13
2018-12-25T15:04:57.018Z,9.33
2018-12-25T15:07:38.318Z,9.17
2018-12-25T15:10:20.286Z,9.63
2018-12-25T15:13:01.595Z,9.80
2018-12-25T15:15:42.837Z,10.40
2018-12-25T15:18:13.402Z,9.63
2018-12-25T15:21:03.168Z,10.23
2018-12-25T15:23:51.998Z,10.10
2018-12-25T15:26:40.840Z,11.70
2018-12-25T15:29:29.611Z,10.23
2018-12-25T15:32:11.161Z,9.87
2018-12-25T15:34:53.056Z,10.77
2018-12-25T15:37:22.949Z,10.50
2018-12-25T15:40:12.354Z,11.27
2018-12-25T15:43:01.282Z,10.00
2018-12-25T15:45:50.456Z,10.20
2018-12-25T15:48:40.028Z,10.20
2018-12-25T15:51:29.129Z,9.03
2018-12-25T15:54:18.057Z,9.77
2018-12-25T15:57:08.686Z,9.90
2018-12-25T15:59:57.588Z,10.00
2018-12-25T16:02:47.004Z,10.77
2018-12-25T16:05:36.227Z,9.30
2018-12-25T16:08:44.139Z,11.97
2018-12-25T16:11:33.696Z,9.07
2018-12-25T16:14:22.486Z,10.80
2018-12-25T16:17:11.346Z,10.93
2018-12-25T16:20:00.314Z,10.10
2018-12-25T16:22:49.154Z,11.00
2018-12-25T16:25:37.896Z,10.93
2018-12-25T16:28:19.303Z,14.20
2018-12-25T16:31:00.741Z,11.73
2018-12-25T16:33:42.290Z,13.40
2018-12-25T16:36:23.918Z,11.33
2018-12-25T16:39:05.637Z,10.97
2018-12-25T16:41:47.472Z,11.00
2018-12-25T16:44:29.076Z,10.10
2018-12-25T16:47:10.096Z,11.00
2018-12-25T16:49:50.028Z,11.67
2018-12-25T16:52:38.774Z,11.43
2018-12-25T16:55:27.608Z,11.20
2018-12-25T16:58:16.467Z,12.10
2018-12-25T17:01:05.263Z,13.97
2018-12-25T17:03:54.008Z,12.40
2018-12-25T17:06:42.820Z,13.47
2018-12-25T17:09:31.587Z,15.97
2018-12-25T17:12:20.382Z,15.13
2018-12-25T17:15:09.226Z,17.43
2018-12-25T17:17:58.262Z,15.30
2018-12-25T17:20:40.063Z,14.30
2018-12-25T17:23:21.952Z,14.90
2018-12-25T17:26:02.993Z,12.77
2018-12-25T17:28:44.470Z,12.60
2018-12-25T17:31:26.153Z,16.33
2018-12-25T17:34:07.083Z,13.87
2018-12-25T17:36:48.550Z,14.00
2018-12-25T17:39:30.062Z,15.40
2018-12-25T17:45:11.132Z,20.77
2018-12-25T17:47:52.891Z,18.53
2018-12-25T17:50:34.732Z,19.27
2018-12-25T17:53:06.140Z,17.80
2018-12-25T17:55:55.646Z,22.83
2018-12-25T17:58:44.797Z,20.40
2018-12-25T18:01:33.819Z,18.20
2018-12-25T18:04:05.385Z,17.47
2018-12-25T18:06:54.329Z,15.90
2018-12-25T18:09:43.650Z,16.83
2018-12-25T18:12:13.762Z,15.50
2018-12-25T18:14:44.085Z,16.57
2018-12-25T18:17:25.645Z,16.77
2018-12-25T18:20:07.193Z,15.10
2018-12-25T18:22:48.452Z,17.13
2018-12-25T18:25:29.973Z,16.63
2018-12-25T18:28:11.674Z,15.93
2018-12-25T18:30:53.225Z,17.97
2018-12-25T18:33:35.119Z,19.97
2018-12-25T18:36:16.134Z,16.30
2018-12-25T18:38:57.685Z,15.77
2018-12-25T18:41:39.601Z,16.70
2018-12-25T18:44:20.945Z,17.20
2018-12-25T18:47:02.734Z,15.77
2018-12-25T18:49:44.122Z,16.37
2018-12-25T18:52:25.612Z,26.33
2018-12-25T18:55:07.338Z,25.53
2018-12-25T18:57:49.025Z,22.70
2018-12-25T19:00:30.732Z,20.87
2018-12-25T19:03:12.277Z,27.73
2018-12-25T19:05:42.500Z,38.93
2018-12-25T19:08:31.510Z,20.87
2018-12-25T19:11:20.618Z,18.30
2018-12-25T19:14:11.252Z,20.30
2018-12-25T19:16:52.785Z,20.77
2018-12-25T19:19:34.004Z,21.70
2018-12-25T19:22:15.690Z,19.93
2018-12-25T19:24:57.118Z,21.40
2018-12-25T19:27:38.442Z,20.77
2018-12-25T19:30:20.105Z,21.10
2018-12-25T19:33:01.485Z,22.50
2018-12-25T19:35:42.775Z,18.90
2018-12-25T19:38:24.494Z,18.57
2018-12-25T19:41:06.238Z,18.93
2018-12-25T19:43:47.804Z,19.80
2018-12-25T19:46:28.960Z,19.27
2018-12-25T19:49:10.485Z,18.73
2018-12-25T19:51:52.001Z,19.20
2018-12-25T19:54:34.089Z,17.30
2018-12-25T19:57:15.515Z,17.40
2018-12-25T19:59:57.049Z,18.70
2018-12-25T20:02:38.398Z,18.97
2018-12-25T20:05:20.083Z,19.03
2018-12-25T20:08:01.639Z,18.03
2018-12-25T20:10:42.797Z,19.20
2018-12-25T20:13:24.448Z,19.83
2018-12-25T20:16:05.815Z,18.00
2018-12-25T20:18:47.648Z,17.90
2018-12-25T20:21:29.279Z,20.23
2018-12-25T20:24:10.660Z,19.33
2018-12-25T20:26:52.498Z,21.90
2018-12-25T20:29:34.166Z,20.37
2018-12-25T20:32:42.128Z,19.13
2018-12-25T20:35:50.179Z,20.57
2018-12-25T20:38:58.074Z,17.83
2018-12-25T20:42:05.899Z,18.23
2018-12-25T20:45:03.138Z,21.37
2018-12-25T20:48:11.134Z,19.47
2018-12-25T20:51:19.264Z,17.50
2018-12-25T20:54:27.122Z,19.00
2018-12-25T20:57:35.034Z,19.60
2018-12-25T21:00:43.010Z,17.60
2018-12-25T21:03:50.792Z,20.10
2018-12-25T21:06:58.509Z,21.17
2018-12-25T21:10:06.473Z,20.83
2018-12-25T21:12:47.829Z,19.00
2018-12-25T21:15:28.976Z,20.50
2018-12-25T21:18:10.681Z,20.73
2018-12-25T21:20:52.130Z,21.03
2018-12-25T21:23:33.949Z,19.20
2018-12-25T21:26:15.552Z,20.20
2018-12-25T21:28:56.914Z,20.07
2018-12-25T21:31:39.061Z,21.00
2018-12-25T21:37:19.112Z,19.90
2018-12-25T21:40:00.309Z,19.70
2018-12-25T21:42:41.681Z,20.90
2018-12-25T21:45:23.474Z,20.30
2018-12-25T21:48:05.056Z,22.40
2018-12-25T21:50:46.718Z,21.13
2018-12-25T21:53:28.434Z,20.17
2018-12-25T21:56:09.817Z,21.23
2018-12-25T21:58:50.868Z,20.43
2018-12-25T22:01:32.318Z,19.77
2018-12-25T22:04:14.150Z,21.00
2018-12-25T22:06:55.879Z,21.73
2018-12-25T22:09:37.363Z,20.43
2018-12-25T22:12:19.092Z,19.97
2018-12-25T22:15:00.238Z,22.13
2018-12-25T22:17:41.468Z,20.53
2018-12-25T22:20:22.809Z,21.57
2018-12-25T22:23:05.764Z,21.03
2018-12-25T22:28:17.721Z,21.33
2018-12-25T22:31:06.454Z,21.70
2018-12-25T22:33:55.694Z,21.47
2018-12-25T22:36:59.310Z,24.33
2018-12-25T22:39:36.698Z,23.83
2018-12-25T22:42:25.960Z,22.40
2018-12-25T22:45:15.456Z,23.30
2018-12-25T22:48:04.701Z,20.73
2018-12-25T22:50:53.619Z,20.90
2018-12-25T22:53:26.933Z,22.80
2018-12-25T22:56:15.529Z,20.47
2018-12-25T22:59:04.556Z,21.33
2018-12-25T23:01:53.494Z,20.83
2018-12-25T23:04:34.852Z,22.67
2018-12-25T23:07:16.166Z,23.43
2018-12-25T23:09:57.711Z,21.87
2018-12-25T23:12:39.110Z,19.97
2018-12-25T23:15:20.263Z,21.57
2018-12-25T23:18:01.998Z,20.60
2018-12-25T23:20:43.615Z,21.10
2018-12-25T23:23:28.112Z,20.30
2018-12-25T23:26:10.646Z,20.53
2018-12-25T23:28:51.975Z,20.70
2018-12-25T23:31:33.271Z,21.20
2018-12-25T23:34:14.884Z,22.03
2018-12-25T23:36:56.586Z,22.53
2018-12-25T23:39:38.412Z,22.80
2018-12-25T23:42:19.700Z,20.23
2018-12-25T23:45:02.952Z,22.40
2018-12-25T23:47:43.731Z,20.03
2018-12-25T23:50:25.138Z,20.77
2018-12-25T23:53:07.624Z,21.50
2018-12-25T23:55:52.895Z,21.60
2018-12-25T23:58:31.758Z,22.03
